PIC Brief
Powered by WingX® Technology

WingX Pro7 for iPad now with IAP Routing   Click for AppStore

Airport Status Wx Images Instructions Send feedback
Apt, Navaid, Fix, Name, City, Route, FAR:
N-Number:

10CO - Mack Mesa

Communications
Location
Sectional:Denver
State:Colorado (CO)
City:3nm N of Mack
Latitude:39' 16" 5.200°N [39.268111°]
Longitude:108' 51" 50.500°W [-108.864028°]
Elevation:4,724'
Variation:13E
Map  Satellite  Hybrid
Attendance
All months, All days, Daylight
Services
Fuel Available:100LL
Airframe Repair:Major
Powerplant Repair:Major
Bottled Oxygen:None
Bulk Oxygen:None
Runways
7/252,600' x 60'Asphalt
Comments

Tower Comments

None

Comments

None
Charts
10CO Information
Temperature: 1°C (33°F)
Dewpoint: -4°C (24°F)
Density Altitude:4029' (-695')
Hover over METAR or TAF to decode
METAR [18nm away]
KGJT 180453Z AUTO 06004KT 10SM CLR 01/M04 A3000 RMK AO2 SLP163 T00061044 $
TAF [18nm away]
KGJT 172323Z 1800/1824 31008KT P6SM SKC
FM180200 06005KT P6SM SKC
FM180600 11010KT P6SM SKC
FM181200 15011KT P6SM FEW110 FEW250
FM182000 22018G27KT P6SM FEW110 SCT250
NOTAMS
Click here

RADAR

Satellite

VFR Sectional

IFR Chart

AIRMETs
Shall we play a game?
Copyright© Hilton Software LLC 2008-2016